Time;durP1;ratioP1;P1;durP2;ratioP2;P2;SDS_P1;SDS_P2;PMS_P1;PMS_P2;Temp;Humidity;BMP_temperature;BMP_pressure;BME280_temperature;BME280_humidity;BME280_pressure;Samples;Min_cycle;Max_cycle;Signal;HPM_P1;HPM_P2
2022/06/14 00:02:55;;;;;;;8.10;7.30;;;;;;;25.37;46.57;100284.90;103741;1315;81972;-90
2022/06/14 00:08:31;;;;;;;8.20;7.30;;;;;;;25.32;46.74;100276.10;103741;1315;67751;-89
2022/06/14 00:14:07;;;;;;;10.10;7.40;;;;;;;25.27;46.75;100273.98;103671;1315;76467;-90
2022/06/14 00:17:07;;;;;;;10.80;7.60;;;;;;;25.28;46.75;100267.83;103806;1317;81935;-89
2022/06/14 00:25:41;;;;;;;9.10;7.20;;;;;;;25.37;46.75;100259.06;103754;1316;67971;-89
2022/06/14 00:31:31;;;;;;;8.80;7.20;;;;;;;25.33;46.83;100259.55;103779;1315;82385;-91
2022/06/14 00:37:04;;;;;;;10.60;7.70;;;;;;;25.36;46.78;100258.45;103762;1315;68178;-90
2022/06/14 00:42:43;;;;;;;9.20;7.20;;;;;;;25.32;46.79;100253.48;103775;1315;74181;-89
2022/06/14 00:48:19;;;;;;;8.80;7.70;;;;;;;25.38;46.89;100255.91;99742;1316;5535512;-90
2022/06/14 00:54:16;;;;;;;11.30;7.90;;;;;;;25.33;46.68;100250.44;103774;1319;67628;-90
2022/06/14 00:59:57;;;;;;;8.50;7.70;;;;;;;25.35;46.99;100245.48;103796;1315;82043;-91
2022/06/14 01:11:13;;;;;;;8.00;7.20;;;;;;;25.33;46.86;100237.41;103810;1316;74278;-90
2022/06/14 01:16:48;;;;;;;10.40;7.50;;;;;;;25.33;46.93;100238.59;103743;1316;72321;-89
2022/06/14 01:22:20;;;;;;;7.80;7.00;;;;;;;25.30;46.94;100241.08;103739;1315;67071;-90
2022/06/14 01:27:56;;;;;;;8.30;7.50;;;;;;;25.32;46.99;100243.75;103735;1315;81841;-89
2022/06/14 01:33:30;;;;;;;8.10;7.30;;;;;;;25.28;46.94;100245.83;103724;1315;67076;-90
2022/06/14 01:39:10;;;;;;;8.20;7.40;;;;;;;25.30;47.00;100237.79;103712;1315;75591;-90
2022/06/14 01:42:16;;;;;;;9.10;7.50;;;;;;;25.29;47.00;100237.82;103750;1315;82013;-90
2022/06/14 01:48:01;;;;;;;7.80;7.00;;;;;;;25.24;47.16;100233.27;103758;1315;68020;-89
2022/06/14 01:54:25;;;;;;;9.20;7.60;;;;;;;25.28;47.19;100238.79;103727;1315;74515;-90
2022/06/14 02:00:32;;;;;;;8.20;7.30;;;;;;;25.24;47.11;100240.48;103755;1315;72380;-90
2022/06/14 02:06:12;;;;;;;8.00;7.30;;;;;;;25.29;47.08;100242.72;103727;1315;67058;-88
2022/06/14 02:11:51;;;;;;;10.50;8.00;;;;;;;25.24;47.08;100244.04;103839;1315;81726;-91
2022/06/14 02:17:25;;;;;;;10.90;7.40;;;;;;;25.24;47.23;100245.01;103740;1315;68337;-90
2022/06/14 02:23:00;;;;;;;11.70;8.10;;;;;;;25.23;47.13;100247.45;103774;1315;74645;-89
2022/06/14 02:28:58;;;;;;;8.30;7.30;;;;;;;25.19;47.22;100250.61;103733;1315;72320;-90
2022/06/14 02:34:52;;;;;;;12.70;7.70;;;;;;;25.21;47.17;100252.38;103798;1315;67839;-90
2022/06/14 02:40:37;;;;;;;8.50;7.30;;;;;;;25.19;47.12;100247.07;103789;1315;81739;-90
2022/06/14 02:46:34;;;;;;;11.90;9.30;;;;;;;25.22;47.05;100250.73;103624;1329;67895;-90
2022/06/14 02:52:42;;;;;;;11.70;8.00;;;;;;;25.06;46.99;100258.52;103750;1318;74345;-91
2022/06/14 02:58:17;;;;;;;10.20;8.30;;;;;;;24.79;47.37;100261.94;103754;1315;72336;-90
2022/06/14 03:03:51;;;;;;;13.50;8.80;;;;;;;24.64;47.67;100263.89;103489;1315;216102;-90
2022/06/14 03:09:22;;;;;;;15.20;8.40;;;;;;;24.56;47.76;100272.04;103797;1315;80893;-88
2022/06/14 03:15:20;;;;;;;31.00;9.60;;;;;;;24.55;47.77;100275.98;103741;1316;67371;-89
2022/06/14 03:18:05;;;;;;;23.60;9.00;;;;;;;24.54;47.82;100274.41;103767;1327;67715;-88
2022/06/14 03:23:49;;;;;;;11.40;8.60;;;;;;;24.50;48.02;100285.73;103711;1316;81947;-89
2022/06/14 03:29:36;;;;;;;10.50;9.00;;;;;;;24.35;48.10;100292.39;103708;1318;66996;-89
2022/06/14 03:35:25;;;;;;;15.30;9.20;;;;;;;24.17;48.33;100283.77;103753;1327;74943;-90
2022/06/14 03:41:00;;;;;;;11.60;8.50;;;;;;;24.07;48.43;100292.12;103713;1315;72285;-91
2022/06/14 03:46:50;;;;;;;10.50;8.40;;;;;;;24.00;48.61;100291.70;103718;1315;68355;-91
2022/06/14 03:52:47;;;;;;;12.00;9.10;;;;;;;23.92;48.80;100290.77;103761;1315;81967;31
2022/06/14 03:59:11;;;;;;;12.60;8.90;;;;;;;23.86;49.12;100296.27;103629;1315;207560;-92
2022/06/14 04:05:07;;;;;;;11.20;9.10;;;;;;;23.86;48.95;100304.52;103766;1315;74360;-90
2022/06/14 04:10:58;;;;;;;12.60;9.20;;;;;;;23.81;48.90;100308.70;103802;1315;74839;-91
2022/06/14 04:17:03;;;;;;;13.70;9.20;;;;;;;23.77;49.15;100314.00;103679;1315;195732;-93
2022/06/14 04:20:13;;;;;;;14.20;9.70;;;;;;;23.76;49.13;100319.20;103717;1317;74236;-90
2022/06/14 04:23:22;;;;;;;18.50;10.50;;;;;;;23.76;49.22;100320.17;103826;1315;81881;-89
2022/06/14 04:29:02;;;;;;;10.40;7.90;;;;;;;23.81;49.20;100326.79;103760;1315;66986;-90
2022/06/14 04:32:17;;;;;;;11.80;7.80;;;;;;;23.85;49.07;100320.29;103716;1315;66864;-90
2022/06/14 04:38:09;;;;;;;13.40;8.10;;;;;;;23.89;48.86;100317.88;103813;1315;81988;-91
2022/06/14 04:43:45;;;;;;;10.20;8.00;;;;;;;23.90;48.84;100333.34;103717;1315;67954;-90
2022/06/14 04:49:27;;;;;;;12.70;8.90;;;;;;;23.97;48.81;100336.84;103669;1315;74141;31
2022/06/14 04:52:28;;;;;;;11.10;8.40;;;;;;;23.96;48.79;100339.98;103671;1315;81151;-89
2022/06/14 04:58:19;;;;;;;14.40;8.50;;;;;;;23.92;48.72;100337.88;103723;1318;67753;-90
2022/06/14 05:07:32;;;;;;;21.10;9.50;;;;;;;23.92;48.59;100335.31;103707;1319;81948;31
2022/06/14 05:13:15;;;;;;;15.80;8.60;;;;;;;23.93;48.55;100336.74;103696;1319;68131;-91
2022/06/14 05:19:09;;;;;;;21.70;12.90;;;;;;;23.98;48.58;100342.03;103722;1319;67774;-91
2022/06/14 05:24:32;;;;;;;16.90;9.00;;;;;;;24.08;48.52;100342.25;103702;1318;67766;-90
2022/06/14 05:30:26;;;;;;;20.60;9.00;;;;;;;24.12;48.29;100342.89;103767;1326;67787;-90
2022/06/14 05:36:10;;;;;;;16.80;8.50;;;;;;;24.12;48.32;100342.45;103764;1319;81648;-88
2022/06/14 05:38:46;;;;;;;14.20;7.70;;;;;;;24.12;48.26;100339.81;103645;1327;72861;-89
2022/06/14 05:41:22;;;;;;;16.70;8.80;;;;;;;24.12;48.38;100341.77;103518;1328;67101;-88
2022/06/14 05:43:52;;;;;;;18.70;8.90;;;;;;;24.13;48.53;100338.77;103639;1328;67858;-88
2022/06/14 05:46:20;;;;;;;21.30;9.50;;;;;;;24.14;48.57;100340.45;103437;1329;67638;-88
2022/06/14 05:48:47;;;;;;;15.20;8.90;;;;;;;24.18;48.61;100348.79;103666;1329;74553;-93
2022/06/14 05:51:13;;;;;;;16.70;8.70;;;;;;;24.22;48.65;100349.19;103694;1328;67117;-88
2022/06/14 05:56:38;;;;;;;18.40;8.70;;;;;;;24.23;48.67;100353.80;103717;1315;67553;-87
2022/06/14 05:59:07;;;;;;;16.60;9.80;;;;;;;24.24;48.57;100356.15;103688;1328;73799;-90
2022/06/14 06:04:30;;;;;;;15.50;9.30;;;;;;;24.25;48.39;100363.27;103711;1316;72923;-88
2022/06/14 06:10:04;;;;;;;11.40;7.30;;;;;;;24.28;48.39;100365.84;103743;1318;67127;-90
2022/06/14 06:16:04;;;;;;;10.80;7.80;;;;;;;24.29;48.34;100372.21;103684;1328;84285;-93
2022/06/14 06:21:47;;;;;;;9.10;6.80;;;;;;;24.36;48.13;100380.95;101501;1322;194598;-89
2022/06/14 06:27:09;;;;;;;9.20;6.70;;;;;;;24.35;48.06;100395.98;103444;1328;73584;-90
2022/06/14 06:35:25;;;;;;;10.40;7.30;;;;;;;24.35;47.75;100403.59;103544;1315;207583;-90
2022/06/14 06:46:54;;;;;;;10.80;6.50;;;;;;;24.25;47.74;100397.88;103635;1315;205573;-92
2022/06/14 06:55:47;;;;;;;18.20;7.20;;;;;;;24.26;47.72;100400.90;103702;1317;73794;-91
2022/06/14 07:01:35;;;;;;;14.10;8.50;;;;;;;24.26;47.94;100403.25;103403;1315;71652;-92
2022/06/14 07:07:51;;;;;;;11.70;7.70;;;;;;;24.34;48.21;100408.02;91324;1318;66612;-92
2022/06/14 07:13:41;;;;;;;15.90;8.40;;;;;;;24.41;48.30;100412.20;103716;1316;75150;-92
2022/06/14 07:19:27;;;;;;;11.40;8.10;;;;;;;24.47;48.56;100418.73;103676;1316;68016;-90
2022/06/14 07:22:32;;;;;;;13.10;8.30;;;;;;;24.54;48.50;100420.38;103757;1315;67023;-92
2022/06/14 07:28:24;;;;;;;18.00;9.00;;;;;;;24.52;48.84;100426.08;103732;1315;82004;-92
2022/06/14 10:39:52;;;;;;;12.70;9.10;;;;;;;25.42;46.36;100386.54;102463;1318;80295;-89
2022/06/14 10:59:49;;;;;;;11.20;8.50;;;;;;;25.47;45.97;100364.59;93746;1318;71435;-92
2022/06/14 13:36:16;;;;;;;11.00;6.20;;;;;;;25.61;49.35;100561.59;99958;1315;75956;31
2022/06/14 14:07:19;;;;;;;24.30;16.60;;;;;;;25.52;49.41;100479.39;89193;1333;73650;-92
